sensor_id;sensor_type;location;lat;lon;timestamp;pressure;altitude;pressure_sealevel;temperature;humidity
57442;BME280;43284;47.042;15.498;2024-01-30T00:00:40;99034.00;;;-4.02;100.00
57442;BME280;43284;47.042;15.498;2024-01-30T00:03:06;99035.72;;;-4.01;100.00
57442;BME280;43284;47.042;15.498;2024-01-30T00:05:32;99040.78;;;-4.03;100.00
57442;BME280;43284;47.042;15.498;2024-01-30T00:07:57;99044.91;;;-4.06;100.00
57442;BME280;43284;47.042;15.498;2024-01-30T00:10:23;99039.84;;;-4.05;100.00
57442;BME280;43284;47.042;15.498;2024-01-30T00:12:48;99039.72;;;-4.08;100.00
57442;BME280;43284;47.042;15.498;2024-01-30T00:15:14;99037.19;;;-4.08;100.00
57442;BME280;43284;47.042;15.498;2024-01-30T00:17:40;99035.38;;;-4.10;100.00
57442;BME280;43284;47.042;15.498;2024-01-30T00:20:06;99036.16;;;-4.11;100.00
57442;BME280;43284;47.042;15.498;2024-01-30T00:22:32;99033.59;;;-4.13;100.00
57442;BME280;43284;47.042;15.498;2024-01-30T00:24:58;99032.81;;;-4.10;100.00
57442;BME280;43284;47.042;15.498;2024-01-30T00:27:23;99029.25;;;-4.14;100.00
57442;BME280;43284;47.042;15.498;2024-01-30T00:29:49;99032.69;;;-4.14;100.00
57442;BME280;43284;47.042;15.498;2024-01-30T00:32:14;99031.13;;;-4.10;100.00
57442;BME280;43284;47.042;15.498;2024-01-30T00:34:41;99037.00;;;-4.12;100.00
57442;BME280;43284;47.042;15.498;2024-01-30T00:37:07;99039.41;;;-4.16;100.00
57442;BME280;43284;47.042;15.498;2024-01-30T00:39:33;99042.78;;;-4.17;100.00
57442;BME280;43284;47.042;15.498;2024-01-30T00:41:58;99041.09;;;-4.16;100.00
57442;BME280;43284;47.042;15.498;2024-01-30T00:44:24;99043.53;;;-4.19;100.00
57442;BME280;43284;47.042;15.498;2024-01-30T00:46:49;99044.41;;;-4.19;100.00
57442;BME280;43284;47.042;15.498;2024-01-30T00:49:15;99045.84;;;-4.25;100.00
57442;BME280;43284;47.042;15.498;2024-01-30T00:51:40;99036.50;;;-4.25;100.00
57442;BME280;43284;47.042;15.498;2024-01-30T00:54:06;99034.69;;;-4.27;100.00
57442;BME280;43284;47.042;15.498;2024-01-30T00:56:31;99041.41;;;-4.29;100.00
57442;BME280;43284;47.042;15.498;2024-01-30T00:58:57;99040.56;;;-4.30;100.00
57442;BME280;43284;47.042;15.498;2024-01-30T01:01:23;99038.75;;;-4.32;100.00
57442;BME280;43284;47.042;15.498;2024-01-30T01:03:48;99036.03;;;-4.37;100.00
57442;BME280;43284;47.042;15.498;2024-01-30T01:06:14;99031.63;;;-4.40;100.00
57442;BME280;43284;47.042;15.498;2024-01-30T01:08:39;99023.13;;;-4.40;100.00
57442;BME280;43284;47.042;15.498;2024-01-30T01:11:05;99019.63;;;-4.42;100.00
57442;BME280;43284;47.042;15.498;2024-01-30T01:13:30;99028.09;;;-4.43;100.00
57442;BME280;43284;47.042;15.498;2024-01-30T01:15:56;99022.94;;;-4.45;100.00
57442;BME280;43284;47.042;15.498;2024-01-30T01:18:22;99020.19;;;-4.49;100.00
57442;BME280;43284;47.042;15.498;2024-01-30T01:20:47;99024.47;;;-4.48;100.00
57442;BME280;43284;47.042;15.498;2024-01-30T01:23:13;99025.38;;;-4.48;100.00
57442;BME280;43284;47.042;15.498;2024-01-30T01:25:38;99024.47;;;-4.48;100.00
57442;BME280;43284;47.042;15.498;2024-01-30T01:28:04;99020.13;;;-4.51;100.00
57442;BME280;43284;47.042;15.498;2024-01-30T01:30:32;99024.38;;;-4.51;100.00
57442;BME280;43284;47.042;15.498;2024-01-30T01:32:58;99024.25;;;-4.54;100.00
57442;BME280;43284;47.042;15.498;2024-01-30T01:35:26;99019.00;;;-4.58;100.00
57442;BME280;43284;47.042;15.498;2024-01-30T01:37:52;99018.06;;;-4.60;100.00
57442;BME280;43284;47.042;15.498;2024-01-30T01:40:24;99018.97;;;-4.59;100.00
57442;BME280;43284;47.042;15.498;2024-01-30T01:42:52;99022.22;;;-4.62;100.00
57442;BME280;43284;47.042;15.498;2024-01-30T01:45:18;99020.44;;;-4.64;100.00
57442;BME280;43284;47.042;15.498;2024-01-30T01:47:46;99021.25;;;-4.65;100.00
57442;BME280;43284;47.042;15.498;2024-01-30T01:50:13;99019.50;;;-4.66;100.00
57442;BME280;43284;47.042;15.498;2024-01-30T01:52:43;99021.19;;;-4.67;100.00
57442;BME280;43284;47.042;15.498;2024-01-30T01:55:10;99018.63;;;-4.67;100.00
57442;BME280;43284;47.042;15.498;2024-01-30T01:57:36;99018.56;;;-4.68;100.00
57442;BME280;43284;47.042;15.498;2024-01-30T02:00:05;99015.06;;;-4.91;100.00
57442;BME280;43284;47.042;15.498;2024-01-30T02:02:35;99024.97;;;-4.78;100.00
57442;BME280;43284;47.042;15.498;2024-01-30T02:05:01;99022.50;;;-4.77;100.00
57442;BME280;43284;47.042;15.498;2024-01-30T02:07:27;99024.88;;;-4.80;100.00
57442;BME280;43284;47.042;15.498;2024-01-30T02:09:54;99020.66;;;-4.79;100.00
57442;BME280;43284;47.042;15.498;2024-01-30T02:12:19;99022.41;;;-4.78;100.00
57442;BME280;43284;47.042;15.498;2024-01-30T02:14:47;99012.22;;;-4.78;100.00
57442;BME280;43284;47.042;15.498;2024-01-30T02:17:13;99013.94;;;-4.77;100.00
57442;BME280;43284;47.042;15.498;2024-01-30T02:19:40;99015.50;;;-4.81;100.00
57442;BME280;43284;47.042;15.498;2024-01-30T02:22:06;99013.69;;;-4.83;100.00
57442;BME280;43284;47.042;15.498;2024-01-30T02:24:32;99016.19;;;-4.85;100.00
57442;BME280;43284;47.042;15.498;2024-01-30T02:26:57;99015.38;;;-4.84;100.00
57442;BME280;43284;47.042;15.498;2024-01-30T02:29:23;99017.03;;;-4.84;100.00
57442;BME280;43284;47.042;15.498;2024-01-30T02:31:49;99009.28;;;-4.87;100.00
57442;BME280;43284;47.042;15.498;2024-01-30T02:34:14;99006.28;;;-4.98;100.00
57442;BME280;43284;47.042;15.498;2024-01-30T02:36:43;99009.50;;;-5.02;100.00
57442;BME280;43284;47.042;15.498;2024-01-30T02:39:09;99007.88;;;-5.00;100.00
57442;BME280;43284;47.042;15.498;2024-01-30T02:41:35;99003.38;;;-5.06;100.00
57442;BME280;43284;47.042;15.498;2024-01-30T02:44:01;99007.69;;;-5.05;100.00
57442;BME280;43284;47.042;15.498;2024-01-30T02:46:27;99006.78;;;-5.05;100.00
57442;BME280;43284;47.042;15.498;2024-01-30T02:48:52;99006.88;;;-5.04;100.00
57442;BME280;43284;47.042;15.498;2024-01-30T02:51:18;99007.50;;;-5.09;100.00
57442;BME280;43284;47.042;15.498;2024-01-30T02:53:43;99009.97;;;-5.11;100.00
57442;BME280;43284;47.042;15.498;2024-01-30T02:56:09;99009.97;;;-5.11;100.00
57442;BME280;43284;47.042;15.498;2024-01-30T02:58:39;99004.72;;;-5.14;100.00
57442;BME280;43284;47.042;15.498;2024-01-30T03:01:05;99004.69;;;-5.15;100.00
57442;BME280;43284;47.042;15.498;2024-01-30T03:03:31;99001.38;;;-5.13;100.00
57442;BME280;43284;47.042;15.498;2024-01-30T03:05:57;99000.53;;;-5.13;100.00
57442;BME280;43284;47.042;15.498;2024-01-30T03:08:22;98996.22;;;-5.14;100.00
57442;BME280;43284;47.042;15.498;2024-01-30T03:10:48;98991.84;;;-5.17;100.00
57442;BME280;43284;47.042;15.498;2024-01-30T03:13:14;98992.88;;;-5.13;100.00
57442;BME280;43284;47.042;15.498;2024-01-30T03:15:39;98986.75;;;-5.17;100.00
57442;BME280;43284;47.042;15.498;2024-01-30T03:18:05;98995.22;;;-5.18;100.00
57442;BME280;43284;47.042;15.498;2024-01-30T03:20:30;98990.06;;;-5.20;100.00
57442;BME280;43284;47.042;15.498;2024-01-30T03:22:57;98995.69;;;-5.27;100.00
57442;BME280;43284;47.042;15.498;2024-01-30T03:25:24;98983.81;;;-5.26;100.00
57442;BME280;43284;47.042;15.498;2024-01-30T03:27:50;98990.66;;;-5.25;100.00
57442;BME280;43284;47.042;15.498;2024-01-30T03:30:16;98983.75;;;-5.28;100.00
57442;BME280;43284;47.042;15.498;2024-01-30T03:32:42;98988.91;;;-5.26;100.00
57442;BME280;43284;47.042;15.498;2024-01-30T03:35:08;98982.06;;;-5.27;100.00
57442;BME280;43284;47.042;15.498;2024-01-30T03:37:34;98980.88;;;-5.35;100.00
57442;BME280;43284;47.042;15.498;2024-01-30T03:39:59;98983.44;;;-5.35;100.00
57442;BME280;43284;47.042;15.498;2024-01-30T03:42:25;98984.22;;;-5.36;100.00
57442;BME280;43284;47.042;15.498;2024-01-30T03:44:50;98991.75;;;-5.40;100.00
57442;BME280;43284;47.042;15.498;2024-01-30T03:47:20;98993.34;;;-5.42;100.00
57442;BME280;43284;47.042;15.498;2024-01-30T03:49:46;98989.94;;;-5.42;100.00
57442;BME280;43284;47.042;15.498;2024-01-30T03:52:11;98998.44;;;-5.42;100.00
57442;BME280;43284;47.042;15.498;2024-01-30T03:54:37;98995.06;;;-5.41;100.00
57442;BME280;43284;47.042;15.498;2024-01-30T03:57:02;98993.38;;;-5.40;100.00
57442;BME280;43284;47.042;15.498;2024-01-30T03:59:28;98987.44;;;-5.41;100.00
57442;BME280;43284;47.042;15.498;2024-01-30T04:01:54;98994.22;;;-5.41;100.00
57442;BME280;43284;47.042;15.498;2024-01-30T04:04:20;98994.22;;;-5.41;100.00
57442;BME280;43284;47.042;15.498;2024-01-30T04:06:48;98991.75;;;-5.40;100.00
57442;BME280;43284;47.042;15.498;2024-01-30T04:09:14;98993.34;;;-5.42;100.00
57442;BME280;43284;47.042;15.498;2024-01-30T04:11:40;98993.94;;;-5.47;100.00
57442;BME280;43284;47.042;15.498;2024-01-30T04:14:07;98995.69;;;-5.46;100.00
57442;BME280;43284;47.042;15.498;2024-01-30T04:16:32;98999.09;;;-5.46;100.00
57442;BME280;43284;47.042;15.498;2024-01-30T04:18:58;98988.16;;;-5.43;100.00
57442;BME280;43284;47.042;15.498;2024-01-30T04:21:23;98986.28;;;-5.47;100.00
57442;BME280;43284;47.042;15.498;2024-01-30T04:23:51;98990.59;;;-5.46;100.00
57442;BME280;43284;47.042;15.498;2024-01-30T04:26:17;98995.69;;;-5.46;100.00
57442;BME280;43284;47.042;15.498;2024-01-30T04:28:44;98995.53;;;-5.49;100.00
57442;BME280;43284;47.042;15.498;2024-01-30T04:31:10;98998.03;;;-5.51;100.00
57442;BME280;43284;47.042;15.498;2024-01-30T04:33:36;98995.25;;;-5.55;100.00
57442;BME280;43284;47.042;15.498;2024-01-30T04:36:02;98994.34;;;-5.57;100.00
57442;BME280;43284;47.042;15.498;2024-01-30T04:38:28;98997.75;;;-5.57;100.00
57442;BME280;43284;47.042;15.498;2024-01-30T04:40:54;98994.41;;;-5.56;100.00
57442;BME280;43284;47.042;15.498;2024-01-30T04:43:19;98995.06;;;-5.60;100.00
57442;BME280;43284;47.042;15.498;2024-01-30T04:45:45;98997.56;;;-5.62;100.00
57442;BME280;43284;47.042;15.498;2024-01-30T04:48:10;98994.19;;;-5.61;100.00
57442;BME280;43284;47.042;15.498;2024-01-30T04:50:36;98995.88;;;-5.61;100.00
57442;BME280;43284;47.042;15.498;2024-01-30T04:53:02;98992.47;;;-5.62;100.00
57442;BME280;43284;47.042;15.498;2024-01-30T04:55:27;98997.56;;;-5.62;100.00
57442;BME280;43284;47.042;15.498;2024-01-30T04:57:53;98995.69;;;-5.66;100.00
57442;BME280;43284;47.042;15.498;2024-01-30T05:00:18;98985.41;;;-5.67;100.00
57442;BME280;43284;47.042;15.498;2024-01-30T05:02:45;98989.72;;;-5.66;100.00
57442;BME280;43284;47.042;15.498;2024-01-30T05:05:11;98994.72;;;-5.68;100.00
57442;BME280;43284;47.042;15.498;2024-01-30T05:07:36;98990.44;;;-5.69;100.00
57442;BME280;43284;47.042;15.498;2024-01-30T05:10:02;98999.66;;;-5.71;100.00
57442;BME280;43284;47.042;15.498;2024-01-30T05:12:28;99001.63;;;-5.65;100.00
57442;BME280;43284;47.042;15.498;2024-01-30T05:14:54;99003.38;;;-5.64;100.00
57442;BME280;43284;47.042;15.498;2024-01-30T05:17:20;99001.09;;;-5.58;100.00
57442;BME280;43284;47.042;15.498;2024-01-30T05:19:45;98995.97;;;-5.60;100.00
57442;BME280;43284;47.042;15.498;2024-01-30T05:22:11;99005.72;;;-5.69;100.00
57442;BME280;43284;47.042;15.498;2024-01-30T05:24:43;99005.78;;;-5.67;100.00
57442;BME280;43284;47.042;15.498;2024-01-30T05:27:09;99006.44;;;-5.71;100.00
57442;BME280;43284;47.042;15.498;2024-01-30T05:29:35;99004.75;;;-5.71;100.00
57442;BME280;43284;47.042;15.498;2024-01-30T05:32:03;99007.25;;;-5.72;100.00
57442;BME280;43284;47.042;15.498;2024-01-30T05:34:30;99007.91;;;-5.76;100.00
57442;BME280;43284;47.042;15.498;2024-01-30T05:36:56;99003.63;;;-5.77;100.00
57442;BME280;43284;47.042;15.498;2024-01-30T05:39:21;99003.34;;;-5.84;100.00
57442;BME280;43284;47.042;15.498;2024-01-30T05:41:47;99005.94;;;-5.82;100.00
57442;BME280;43284;47.042;15.498;2024-01-30T05:44:12;99016.00;;;-5.85;100.00
57442;BME280;43284;47.042;15.498;2024-01-30T05:46:38;99009.16;;;-5.86;100.00
57442;BME280;43284;47.042;15.498;2024-01-30T05:49:03;99003.94;;;-5.89;100.00
57442;BME280;43284;47.042;15.498;2024-01-30T05:51:29;99008.78;;;-5.95;100.00
57442;BME280;43284;47.042;15.498;2024-01-30T05:53:54;99006.16;;;-5.97;100.00
57442;BME280;43284;47.042;15.498;2024-01-30T05:56:20;99007.91;;;-5.96;100.00
57442;BME280;43284;47.042;15.498;2024-01-30T05:58:45;99006.22;;;-5.95;100.00
57442;BME280;43284;47.042;15.498;2024-01-30T06:01:11;99004.34;;;-5.99;100.00
57442;BME280;43284;47.042;15.498;2024-01-30T06:03:36;99003.47;;;-6.00;100.00
57442;BME280;43284;47.042;15.498;2024-01-30T06:06:02;99001.78;;;-5.99;100.00
57442;BME280;43284;47.042;15.498;2024-01-30T06:08:28;99006.97;;;-5.98;100.00
57442;BME280;43284;47.042;15.498;2024-01-30T06:10:53;99008.56;;;-6.00;100.00
57442;BME280;43284;47.042;15.498;2024-01-30T06:13:19;99005.16;;;-6.01;100.00
57442;BME280;43284;47.042;15.498;2024-01-30T06:15:45;99009.50;;;-5.98;100.00
57442;BME280;43284;47.042;15.498;2024-01-30T06:18:14;98990.88;;;-5.97;100.00
57442;BME280;43284;47.042;15.498;2024-01-30T06:20:39;99009.50;;;-5.98;100.00
57442;BME280;43284;47.042;15.498;2024-01-30T06:23:04;99006.16;;;-5.97;100.00
57442;BME280;43284;47.042;15.498;2024-01-30T06:25:33;99006.88;;;-5.99;100.00
57442;BME280;43284;47.042;15.498;2024-01-30T06:27:58;99003.47;;;-6.00;100.00
57442;BME280;43284;47.042;15.498;2024-01-30T06:30:24;99007.78;;;-5.99;100.00
57442;BME280;43284;47.042;15.498;2024-01-30T06:32:49;99003.69;;;-5.95;100.00
57442;BME280;43284;47.042;15.498;2024-01-30T06:35:15;99005.44;;;-5.94;100.00
57442;BME280;43284;47.042;15.498;2024-01-30T06:37:42;99004.59;;;-5.93;100.00
57442;BME280;43284;47.042;15.498;2024-01-30T06:40:08;99014.03;;;-5.91;100.00
57442;BME280;43284;47.042;15.498;2024-01-30T06:42:34;99008.00;;;-5.93;100.00
57442;BME280;43284;47.042;15.498;2024-01-30T06:44:59;99007.09;;;-5.95;100.00
57442;BME280;43284;47.042;15.498;2024-01-30T06:47:25;99014.78;;;-5.93;100.00
57442;BME280;43284;47.042;15.498;2024-01-30T06:49:50;99012.19;;;-5.95;100.00
57442;BME280;43284;47.042;15.498;2024-01-30T06:52:16;99009.69;;;-5.93;100.00
57442;BME280;43284;47.042;15.498;2024-01-30T06:54:41;99007.34;;;-5.89;100.00
57442;BME280;43284;47.042;15.498;2024-01-30T06:57:07;99010.84;;;-5.87;100.00
57442;BME280;43284;47.042;15.498;2024-01-30T06:59:37;99016.44;;;-5.76;100.00
57442;BME280;43284;47.042;15.498;2024-01-30T07:02:09;99014.00;;;-5.73;100.00
57442;BME280;43284;47.042;15.498;2024-01-30T07:04:34;99021.66;;;-5.73;100.00
57442;BME280;43284;47.042;15.498;2024-01-30T07:07:02;99019.84;;;-5.75;100.00
57442;BME280;43284;47.042;15.498;2024-01-30T07:09:28;99017.28;;;-5.75;100.00
57442;BME280;43284;47.042;15.498;2024-01-30T07:11:54;99018.97;;;-5.76;100.00
57442;BME280;43284;47.042;15.498;2024-01-30T07:14:20;99020.78;;;-5.73;100.00
57442;BME280;43284;47.042;15.498;2024-01-30T07:16:46;99018.31;;;-5.72;100.00
57442;BME280;43284;47.042;15.498;2024-01-30T07:19:11;99017.50;;;-5.71;100.00
57442;BME280;43284;47.042;15.498;2024-01-30T07:21:37;99015.19;;;-5.66;100.00
57442;BME280;43284;47.042;15.498;2024-01-30T07:24:03;99021.34;;;-5.61;100.00
57442;BME280;43284;47.042;15.498;2024-01-30T07:26:29;99019.09;;;-5.55;100.00
57442;BME280;43284;47.042;15.498;2024-01-30T07:28:55;99026.13;;;-5.49;100.00
57442;BME280;43284;47.042;15.498;2024-01-30T07:31:20;99026.97;;;-5.49;100.00
57442;BME280;43284;47.042;15.498;2024-01-30T07:33:48;99028.06;;;-5.44;100.00
57442;BME280;43284;47.042;15.498;2024-01-30T07:36:14;99032.44;;;-5.41;100.00
57442;BME280;43284;47.042;15.498;2024-01-30T07:38:39;99035.19;;;-5.36;100.00
57442;BME280;43284;47.042;15.498;2024-01-30T07:41:05;99037.06;;;-5.32;100.00
57442;BME280;43284;47.042;15.498;2024-01-30T07:43:31;99035.66;;;-5.26;100.00
57442;BME280;43284;47.042;15.498;2024-01-30T07:45:56;99043.59;;;-5.20;100.00
57442;BME280;43284;47.042;15.498;2024-01-30T07:48:22;99036.22;;;-5.13;100.00
57442;BME280;43284;47.042;15.498;2024-01-30T07:50:48;99033.13;;;-5.06;100.00
57442;BME280;43284;47.042;15.498;2024-01-30T07:53:14;99033.38;;;-5.00;100.00
57442;BME280;43284;47.042;15.498;2024-01-30T07:55:49;99039.63;;;-4.93;100.00
57442;BME280;43284;47.042;15.498;2024-01-30T07:58:15;99033.22;;;-4.84;100.00
57442;BME280;43284;47.042;15.498;2024-01-30T08:00:41;99026.00;;;-4.73;100.00
57442;BME280;43284;47.042;15.498;2024-01-30T08:03:10;99022.88;;;-4.67;100.00
57442;BME280;43284;47.042;15.498;2024-01-30T08:05:37;99036.06;;;-4.57;100.00
57442;BME280;43284;47.042;15.498;2024-01-30T08:08:05;99028.97;;;-4.43;100.00
57442;BME280;43284;47.042;15.498;2024-01-30T08:10:31;99034.19;;;-4.19;100.00
57442;BME280;43284;47.042;15.498;2024-01-30T08:12:56;99029.94;;;-3.97;100.00
57442;BME280;43284;47.042;15.498;2024-01-30T08:15:22;99033.78;;;-3.86;100.00
57442;BME280;43284;47.042;15.498;2024-01-30T08:17:48;99037.50;;;-3.78;100.00
57442;BME280;43284;47.042;15.498;2024-01-30T08:20:14;99033.44;;;-3.73;100.00
57442;BME280;43284;47.042;15.498;2024-01-30T08:22:42;99040.47;;;-3.67;100.00
57442;BME280;43284;47.042;15.498;2024-01-30T08:25:07;99031.34;;;-3.60;100.00
57442;BME280;43284;47.042;15.498;2024-01-30T08:27:35;99027.50;;;-3.49;100.00
57442;BME280;43284;47.042;15.498;2024-01-30T08:30:03;99036.34;;;-3.41;100.00
57442;BME280;43284;47.042;15.498;2024-01-30T08:32:28;99033.66;;;-3.21;100.00
57442;BME280;43284;47.042;15.498;2024-01-30T08:34:58;99034.44;;;-2.98;100.00
57442;BME280;43284;47.042;15.498;2024-01-30T08:37:24;99031.25;;;-2.93;100.00
57442;BME280;43284;47.042;15.498;2024-01-30T08:39:51;99034.81;;;-2.87;100.00
57442;BME280;43284;47.042;15.498;2024-01-30T08:42:17;99025.81;;;-2.76;100.00
57442;BME280;43284;47.042;15.498;2024-01-30T08:44:49;99035.88;;;-2.57;100.00
57442;BME280;43284;47.042;15.498;2024-01-30T08:47:17;99021.59;;;-2.50;100.00
57442;BME280;43284;47.042;15.498;2024-01-30T08:49:44;99021.03;;;-2.41;100.00
57442;BME280;43284;47.042;15.498;2024-01-30T08:52:11;99012.47;;;-2.15;100.00
57442;BME280;43284;47.042;15.498;2024-01-30T08:54:37;99009.13;;;-2.14;100.00
57442;BME280;43284;47.042;15.498;2024-01-30T08:57:04;99012.88;;;-2.02;100.00
57442;BME280;43284;47.042;15.498;2024-01-30T08:59:30;99011.25;;;-2.00;100.00
57442;BME280;43284;47.042;15.498;2024-01-30T09:01:56;99007.91;;;-1.69;100.00
57442;BME280;43284;47.042;15.498;2024-01-30T09:04:24;99010.41;;;-1.71;100.00
57442;BME280;43284;47.042;15.498;2024-01-30T09:06:51;99006.38;;;-1.64;100.00
57442;BME280;43284;47.042;15.498;2024-01-30T09:09:17;99010.88;;;-1.55;100.00
57442;BME280;43284;47.042;15.498;2024-01-30T09:11:44;99012.22;;;-1.38;100.00
57442;BME280;43284;47.042;15.498;2024-01-30T09:14:09;99011.72;;;-1.26;100.00
57442;BME280;43284;47.042;15.498;2024-01-30T09:16:36;99006.47;;;-1.00;100.00
57442;BME280;43284;47.042;15.498;2024-01-30T09:19:02;99008.09;;;-1.02;100.00
57442;BME280;43284;47.042;15.498;2024-01-30T09:21:28;98999.34;;;-0.77;100.00
57442;BME280;43284;47.042;15.498;2024-01-30T09:24:03;99000.22;;;-0.77;100.00
57442;BME280;43284;47.042;15.498;2024-01-30T09:26:31;99003.81;;;-0.70;100.00
57442;BME280;43284;47.042;15.498;2024-01-30T09:28:57;99007.38;;;-0.65;100.00
57442;BME280;43284;47.042;15.498;2024-01-30T09:31:24;99009.59;;;-0.46;100.00
57442;BME280;43284;47.042;15.498;2024-01-30T09:33:49;99002.22;;;-0.32;100.00
57442;BME280;43284;47.042;15.498;2024-01-30T09:36:17;99005.00;;;-0.23;100.00
57442;BME280;43284;47.042;15.498;2024-01-30T09:38:45;99004.47;;;-0.09;100.00
57442;BME280;43284;47.042;15.498;2024-01-30T09:41:12;99000.63;;;0.10;100.00
57442;BME280;43284;47.042;15.498;2024-01-30T09:43:39;99000.75;;;0.16;100.00
57442;BME280;43284;47.042;15.498;2024-01-30T09:46:08;98996.59;;;0.21;100.00
57442;BME280;43284;47.042;15.498;2024-01-30T09:48:39;99001.09;;;0.31;100.00
57442;BME280;43284;47.042;15.498;2024-01-30T09:51:08;98996.16;;;0.40;100.00
57442;BME280;43284;47.042;15.498;2024-01-30T09:53:35;98996.38;;;0.51;99.74
57442;BME280;43284;47.042;15.498;2024-01-30T09:56:02;98990.28;;;0.48;99.47
57442;BME280;43284;47.042;15.498;2024-01-30T09:58:29;98993.72;;;0.47;99.74
57442;BME280;43284;47.042;15.498;2024-01-30T10:00:55;98986.91;;;0.50;97.52
57442;BME280;43284;47.042;15.498;2024-01-30T10:03:21;98986.31;;;0.62;96.02
57442;BME280;43284;47.042;15.498;2024-01-30T10:05:55;98985.06;;;0.86;97.84
57442;BME280;43284;47.042;15.498;2024-01-30T10:08:22;98976.78;;;1.02;96.56
57442;BME280;43284;47.042;15.498;2024-01-30T10:10:49;98979.28;;;0.97;96.37
57442;BME280;43284;47.042;15.498;2024-01-30T10:13:16;98973.88;;;1.31;94.08
57442;BME280;43284;47.042;15.498;2024-01-30T10:15:42;98973.19;;;1.41;90.84
57442;BME280;43284;47.042;15.498;2024-01-30T10:18:09;98968.06;;;1.41;89.77
57442;BME280;43284;47.042;15.498;2024-01-30T10:20:36;98974.91;;;1.42;92.48
57442;BME280;43284;47.042;15.498;2024-01-30T10:23:06;98967.31;;;1.48;92.98
57442;BME280;43284;47.042;15.498;2024-01-30T10:25:31;98962.50;;;1.70;88.61
57442;BME280;43284;47.042;15.498;2024-01-30T10:27:58;98965.75;;;1.58;90.22
57442;BME280;43284;47.042;15.498;2024-01-30T10:30:25;98955.78;;;1.79;86.39
57442;BME280;43284;47.042;15.498;2024-01-30T10:32:51;98950.88;;;1.96;84.86
57442;BME280;43284;47.042;15.498;2024-01-30T10:35:17;98943.13;;;1.96;86.56
57442;BME280;43284;47.042;15.498;2024-01-30T10:37:43;98940.00;;;2.17;88.70
57442;BME280;43284;47.042;15.498;2024-01-30T10:40:13;98940.19;;;2.33;83.64
57442;BME280;43284;47.042;15.498;2024-01-30T10:42:44;98940.28;;;2.40;84.16
57442;BME280;43284;47.042;15.498;2024-01-30T10:45:14;98931.88;;;2.54;85.44
57442;BME280;43284;47.042;15.498;2024-01-30T10:47:48;98930.22;;;2.59;81.93
57442;BME280;43284;47.042;15.498;2024-01-30T10:50:14;98929.56;;;2.80;80.15
57442;BME280;43284;47.042;15.498;2024-01-30T10:52:40;98920.78;;;2.64;76.25
57442;BME280;43284;47.042;15.498;2024-01-30T10:55:07;98925.94;;;2.61;80.83
57442;BME280;43284;47.042;15.498;2024-01-30T10:57:37;98910.69;;;2.82;75.79
57442;BME280;43284;47.042;15.498;2024-01-30T11:00:06;98921.78;;;2.75;73.58
57442;BME280;43284;47.042;15.498;2024-01-30T11:02:39;98910.56;;;2.73;74.12
57442;BME280;43284;47.042;15.498;2024-01-30T11:05:05;98909.28;;;3.18;72.60
57442;BME280;43284;47.042;15.498;2024-01-30T11:07:31;98896.16;;;2.97;73.22
57442;BME280;43284;47.042;15.498;2024-01-30T11:12:24;98885.22;;;3.22;70.32
57442;BME280;43284;47.042;15.498;2024-01-30T11:15:01;98884.50;;;3.37;70.93
57442;BME280;43284;47.042;15.498;2024-01-30T11:17:28;98889.66;;;3.39;71.26
57442;BME280;43284;47.042;15.498;2024-01-30T11:20:05;98883.69;;;3.47;72.42
57442;BME280;43284;47.042;15.498;2024-01-30T11:22:34;98881.06;;;3.40;70.34
57442;BME280;43284;47.042;15.498;2024-01-30T11:25:04;98878.38;;;3.29;72.01
57442;BME280;43284;47.042;15.498;2024-01-30T11:27:33;98877.69;;;3.50;71.68
57442;BME280;43284;47.042;15.498;2024-01-30T11:30:03;98875.91;;;3.43;68.73
57442;BME280;43284;47.042;15.498;2024-01-30T11:32:29;98872.41;;;3.38;69.29
57442;BME280;43284;47.042;15.498;2024-01-30T11:34:55;98875.16;;;3.59;71.57
57442;BME280;43284;47.042;15.498;2024-01-30T11:37:21;98868.34;;;3.70;71.23
57442;BME280;43284;47.042;15.498;2024-01-30T11:39:49;98876.25;;;3.95;69.45
57442;BME280;43284;47.042;15.498;2024-01-30T11:42:16;98866.75;;;3.89;67.65
57442;BME280;43284;47.042;15.498;2024-01-30T11:44:47;98864.06;;;3.77;68.72
57442;BME280;43284;47.042;15.498;2024-01-30T11:47:15;98855.66;;;4.17;65.41
57442;BME280;43284;47.042;15.498;2024-01-30T11:49:41;98856.41;;;3.97;66.54
57442;BME280;43284;47.042;15.498;2024-01-30T11:52:07;98854.75;;;4.10;66.43
57442;BME280;43284;47.042;15.498;2024-01-30T11:54:32;98854.81;;;4.24;65.74
57442;BME280;43284;47.042;15.498;2024-01-30T11:56:58;98846.25;;;4.39;66.63
57442;BME280;43284;47.042;15.498;2024-01-30T11:59:24;98841.91;;;4.27;63.53
57442;BME280;43284;47.042;15.498;2024-01-30T12:01:51;98841.03;;;4.26;64.66
57442;BME280;43284;47.042;15.498;2024-01-30T12:04:17;98841.06;;;4.43;64.52
57442;BME280;43284;47.042;15.498;2024-01-30T12:06:43;98840.22;;;4.47;63.32
57442;BME280;43284;47.042;15.498;2024-01-30T12:09:09;98836.72;;;4.34;62.90
57442;BME280;43284;47.042;15.498;2024-01-30T12:11:47;98831.63;;;4.48;63.94
57442;BME280;43284;47.042;15.498;2024-01-30T12:14:13;98831.66;;;4.67;63.77
57442;BME280;43284;47.042;15.498;2024-01-30T12:16:39;98829.97;;;4.81;63.74
57442;BME280;43284;47.042;15.498;2024-01-30T12:19:07;98821.31;;;4.81;62.14
57442;BME280;43284;47.042;15.498;2024-01-30T12:21:34;98819.59;;;4.86;63.54
57442;BME280;43284;47.042;15.498;2024-01-30T12:24:01;98814.41;;;4.93;61.78
57442;BME280;43284;47.042;15.498;2024-01-30T12:26:27;98812.69;;;5.05;61.94
57442;BME280;43284;47.042;15.498;2024-01-30T12:28:57;98810.09;;;4.97;61.52
57442;BME280;43284;47.042;15.498;2024-01-30T12:31:28;98817.88;;;5.25;62.37
57442;BME280;43284;47.042;15.498;2024-01-30T12:33:55;98811.81;;;5.09;61.93
57442;BME280;43284;47.042;15.498;2024-01-30T12:36:21;98814.44;;;5.12;62.86
57442;BME280;43284;47.042;15.498;2024-01-30T12:38:48;98810.94;;;5.07;62.78
57442;BME280;43284;47.042;15.498;2024-01-30T12:41:14;98804.94;;;5.25;62.71
57442;BME280;43284;47.042;15.498;2024-01-30T12:43:41;98802.31;;;5.37;61.37